sensor_id;sensor_type;location;lat;lon;timestamp;pressure;altitude;pressure_sealevel;temperature;humidity
50933;BME280;36921;49.006;9.292;2022-07-21T00:01:09;99018.13;;;18.87;100.00
50933;BME280;36921;49.006;9.292;2022-07-21T00:03:34;99022.50;;;18.88;100.00
50933;BME280;36921;49.006;9.292;2022-07-21T00:06:01;99007.81;;;18.77;100.00
50933;BME280;36921;49.006;9.292;2022-07-21T00:08:26;99013.16;;;18.84;100.00
50933;BME280;36921;49.006;9.292;2022-07-21T00:10:51;99017.09;;;18.93;100.00
50933;BME280;36921;49.006;9.292;2022-07-21T00:13:18;98993.88;;;18.79;100.00
50933;BME280;36921;49.006;9.292;2022-07-21T00:15:43;98994.84;;;18.90;100.00
50933;BME280;36921;49.006;9.292;2022-07-21T00:18:08;98998.72;;;18.94;100.00
50933;BME280;36921;49.006;9.292;2022-07-21T00:20:34;98981.72;;;18.92;100.00
50933;BME280;36921;49.006;9.292;2022-07-21T00:22:59;98992.88;;;18.85;100.00
50933;BME280;36921;49.006;9.292;2022-07-21T00:25:25;98994.19;;;18.82;100.00
50933;BME280;36921;49.006;9.292;2022-07-21T00:27:51;98985.31;;;18.75;100.00
50933;BME280;36921;49.006;9.292;2022-07-21T00:30:16;98987.22;;;18.75;100.00
50933;BME280;36921;49.006;9.292;2022-07-21T00:32:42;98980.25;;;18.67;100.00
50933;BME280;36921;49.006;9.292;2022-07-21T00:35:09;98985.41;;;18.64;100.00
50933;BME280;36921;49.006;9.292;2022-07-21T00:37:35;98996.59;;;18.62;100.00
50933;BME280;36921;49.006;9.292;2022-07-21T00:40:01;99010.66;;;18.66;100.00
50933;BME280;36921;49.006;9.292;2022-07-21T00:42:28;98989.41;;;18.56;100.00
50933;BME280;36921;49.006;9.292;2022-07-21T00:44:55;98992.03;;;18.68;100.00
50933;BME280;36921;49.006;9.292;2022-07-21T00:47:26;98997.59;;;18.73;100.00
50933;BME280;36921;49.006;9.292;2022-07-21T00:49:53;99012.88;;;18.86;100.00
50933;BME280;36921;49.006;9.292;2022-07-21T00:52:18;99025.59;;;18.92;100.00
50933;BME280;36921;49.006;9.292;2022-07-21T00:54:44;99031.53;;;19.05;100.00
50933;BME280;36921;49.006;9.292;2022-07-21T00:57:11;99034.34;;;19.11;100.00
50933;BME280;36921;49.006;9.292;2022-07-21T00:59:36;99033.91;;;19.19;100.00
50933;BME280;36921;49.006;9.292;2022-07-21T01:02:03;99034.03;;;19.29;100.00
50933;BME280;36921;49.006;9.292;2022-07-21T01:04:28;99016.03;;;19.38;100.00
50933;BME280;36921;49.006;9.292;2022-07-21T01:06:54;98996.78;;;19.33;100.00
50933;BME280;36921;49.006;9.292;2022-07-21T01:09:21;99010.94;;;19.47;100.00
50933;BME280;36921;49.006;9.292;2022-07-21T01:11:47;98989.88;;;19.31;100.00
50933;BME280;36921;49.006;9.292;2022-07-21T01:14:13;98983.69;;;19.40;100.00
50933;BME280;36921;49.006;9.292;2022-07-21T01:16:39;98988.59;;;19.60;100.00
50933;BME280;36921;49.006;9.292;2022-07-21T01:19:06;99001.50;;;19.60;100.00
50933;BME280;36921;49.006;9.292;2022-07-21T01:21:34;99011.91;;;19.58;100.00
50933;BME280;36921;49.006;9.292;2022-07-21T01:24:01;99015.59;;;19.46;100.00
50933;BME280;36921;49.006;9.292;2022-07-21T01:26:26;99007.94;;;19.48;100.00
50933;BME280;36921;49.006;9.292;2022-07-21T01:28:52;99007.88;;;19.43;100.00
50933;BME280;36921;49.006;9.292;2022-07-21T01:31:17;99002.97;;;19.45;100.00
50933;BME280;36921;49.006;9.292;2022-07-21T01:33:43;99014.19;;;19.44;100.00
50933;BME280;36921;49.006;9.292;2022-07-21T01:36:08;99010.81;;;19.37;100.00
50933;BME280;36921;49.006;9.292;2022-07-21T01:38:34;99022.81;;;19.31;100.00
50933;BME280;36921;49.006;9.292;2022-07-21T01:41:18;99023.13;;;19.34;100.00
50933;BME280;36921;49.006;9.292;2022-07-21T01:43:57;98998.63;;;19.27;100.00
50933;BME280;36921;49.006;9.292;2022-07-21T01:46:23;99020.31;;;19.29;100.00
50933;BME280;36921;49.006;9.292;2022-07-21T01:48:49;99020.31;;;19.29;100.00
50933;BME280;36921;49.006;9.292;2022-07-21T01:51:14;99031.81;;;19.26;100.00
50933;BME280;36921;49.006;9.292;2022-07-21T01:53:40;99028.66;;;19.17;100.00
50933;BME280;36921;49.006;9.292;2022-07-21T01:56:05;99027.53;;;19.13;100.00
50933;BME280;36921;49.006;9.292;2022-07-21T01:58:31;99027.69;;;19.07;100.00
50933;BME280;36921;49.006;9.292;2022-07-21T02:00:57;99034.22;;;19.00;100.00
50933;BME280;36921;49.006;9.292;2022-07-21T02:03:22;99033.94;;;19.02;100.00
50933;BME280;36921;49.006;9.292;2022-07-21T02:05:48;99045.25;;;19.05;100.00
50933;BME280;36921;49.006;9.292;2022-07-21T02:08:13;99043.34;;;19.06;100.00
50933;BME280;36921;49.006;9.292;2022-07-21T02:10:38;99042.56;;;19.11;100.00
50933;BME280;36921;49.006;9.292;2022-07-21T02:13:04;99056.09;;;19.17;100.00
50933;BME280;36921;49.006;9.292;2022-07-21T02:15:30;99052.00;;;19.20;100.00
50933;BME280;36921;49.006;9.292;2022-07-21T02:17:56;99051.94;;;19.15;100.00
50933;BME280;36921;49.006;9.292;2022-07-21T02:20:22;99064.09;;;19.19;100.00
50933;BME280;36921;49.006;9.292;2022-07-21T02:22:47;99083.34;;;19.24;100.00
50933;BME280;36921;49.006;9.292;2022-07-21T02:25:13;99079.84;;;19.29;100.00
50933;BME280;36921;49.006;9.292;2022-07-21T02:27:38;99069.13;;;19.27;100.00
50933;BME280;36921;49.006;9.292;2022-07-21T02:30:04;99064.16;;;19.24;100.00
50933;BME280;36921;49.006;9.292;2022-07-21T02:32:30;99057.34;;;19.10;100.00
50933;BME280;36921;49.006;9.292;2022-07-21T02:34:55;99054.97;;;19.13;100.00
50933;BME280;36921;49.006;9.292;2022-07-21T02:37:21;99047.47;;;19.09;100.00
50933;BME280;36921;49.006;9.292;2022-07-21T02:39:46;99060.44;;;19.13;100.00
50933;BME280;36921;49.006;9.292;2022-07-21T02:42:12;99060.69;;;19.12;100.00
50933;BME280;36921;49.006;9.292;2022-07-21T02:44:37;99069.50;;;19.14;100.00
50933;BME280;36921;49.006;9.292;2022-07-21T02:47:03;99066.16;;;19.12;100.00
50933;BME280;36921;49.006;9.292;2022-07-21T02:49:28;99059.53;;;19.08;100.00
50933;BME280;36921;49.006;9.292;2022-07-21T02:51:54;99077.72;;;19.14;100.00
50933;BME280;36921;49.006;9.292;2022-07-21T02:54:19;99076.06;;;19.13;100.00
50933;BME280;36921;49.006;9.292;2022-07-21T02:56:44;99073.34;;;19.13;100.00
50933;BME280;36921;49.006;9.292;2022-07-21T02:59:10;99075.22;;;19.12;100.00
50933;BME280;36921;49.006;9.292;2022-07-21T03:01:35;99074.66;;;19.10;100.00
50933;BME280;36921;49.006;9.292;2022-07-21T03:04:00;99071.00;;;19.04;100.00
50933;BME280;36921;49.006;9.292;2022-07-21T03:06:25;99062.38;;;18.96;100.00
50933;BME280;36921;49.006;9.292;2022-07-21T03:08:51;99064.88;;;18.97;100.00
50933;BME280;36921;49.006;9.292;2022-07-21T03:11:16;99085.56;;;19.05;100.00
50933;BME280;36921;49.006;9.292;2022-07-21T03:13:41;99082.53;;;19.07;100.00
50933;BME280;36921;49.006;9.292;2022-07-21T03:16:07;99082.03;;;19.10;100.00
50933;BME280;36921;49.006;9.292;2022-07-21T03:18:32;99083.88;;;19.04;100.00
50933;BME280;36921;49.006;9.292;2022-07-21T03:20:57;99068.91;;;19.12;100.00
50933;BME280;36921;49.006;9.292;2022-07-21T03:23:23;99088.78;;;19.19;100.00
50933;BME280;36921;49.006;9.292;2022-07-21T03:25:48;99094.84;;;19.21;100.00
50933;BME280;36921;49.006;9.292;2022-07-21T03:28:14;99097.31;;;19.22;100.00
50933;BME280;36921;49.006;9.292;2022-07-21T03:30:40;99095.91;;;19.20;100.00
50933;BME280;36921;49.006;9.292;2022-07-21T03:33:05;99109.38;;;19.21;100.00
50933;BME280;36921;49.006;9.292;2022-07-21T03:35:31;99088.03;;;19.23;100.00
50933;BME280;36921;49.006;9.292;2022-07-21T03:37:59;99112.44;;;19.25;100.00
50933;BME280;36921;49.006;9.292;2022-07-21T03:40:27;99115.09;;;19.20;100.00
50933;BME280;36921;49.006;9.292;2022-07-21T03:42:54;99103.88;;;19.21;100.00
50933;BME280;36921;49.006;9.292;2022-07-21T03:45:20;99108.03;;;19.24;100.00
50933;BME280;36921;49.006;9.292;2022-07-21T03:47:45;99095.97;;;19.25;100.00
50933;BME280;36921;49.006;9.292;2022-07-21T03:50:12;99104.78;;;19.27;100.00
50933;BME280;36921;49.006;9.292;2022-07-21T03:52:38;99103.38;;;19.24;100.00
50933;BME280;36921;49.006;9.292;2022-07-21T03:55:03;99095.97;;;19.25;100.00
50933;BME280;36921;49.006;9.292;2022-07-21T03:57:40;99119.09;;;19.29;100.00
50933;BME280;36921;49.006;9.292;2022-07-21T04:00:08;99118.56;;;19.32;100.00
50933;BME280;36921;49.006;9.292;2022-07-21T04:02:34;99106.19;;;19.30;100.00
50933;BME280;36921;49.006;9.292;2022-07-21T04:05:00;99107.69;;;19.37;100.00
50933;BME280;36921;49.006;9.292;2022-07-21T04:07:25;99112.84;;;19.34;100.00
50933;BME280;36921;49.006;9.292;2022-07-21T04:09:51;99112.50;;;19.30;100.00
50933;BME280;36921;49.006;9.292;2022-07-21T04:12:16;99110.72;;;19.41;100.00
50933;BME280;36921;49.006;9.292;2022-07-21T04:14:41;99117.38;;;19.45;100.00
50933;BME280;36921;49.006;9.292;2022-07-21T04:17:07;99117.31;;;19.40;100.00
50933;BME280;36921;49.006;9.292;2022-07-21T04:19:32;99116.16;;;19.36;100.00
50933;BME280;36921;49.006;9.292;2022-07-21T04:21:58;99125.31;;;19.41;100.00
50933;BME280;36921;49.006;9.292;2022-07-21T04:24:23;99125.03;;;19.43;100.00
50933;BME280;36921;49.006;9.292;2022-07-21T04:26:48;99127.19;;;19.41;100.00
50933;BME280;36921;49.006;9.292;2022-07-21T04:29:13;99131.19;;;19.33;100.00
50933;BME280;36921;49.006;9.292;2022-07-21T04:31:39;99129.19;;;19.45;100.00
50933;BME280;36921;49.006;9.292;2022-07-21T04:34:04;99128.94;;;19.47;100.00
50933;BME280;36921;49.006;9.292;2022-07-21T04:36:29;99138.59;;;19.49;100.00
50933;BME280;36921;49.006;9.292;2022-07-21T04:38:55;99132.06;;;19.56;100.00
50933;BME280;36921;49.006;9.292;2022-07-21T04:41:20;99142.81;;;19.57;100.00
50933;BME280;36921;49.006;9.292;2022-07-21T04:43:45;99131.50;;;19.54;100.00
50933;BME280;36921;49.006;9.292;2022-07-21T04:46:11;99140.63;;;19.59;100.00
50933;BME280;36921;49.006;9.292;2022-07-21T04:48:36;99136.22;;;19.58;100.00
50933;BME280;36921;49.006;9.292;2022-07-21T04:51:01;99139.28;;;19.62;100.00
50933;BME280;36921;49.006;9.292;2022-07-21T04:53:27;99150.94;;;19.69;100.00
50933;BME280;36921;49.006;9.292;2022-07-21T04:55:52;99145.47;;;19.52;100.00
50933;BME280;36921;49.006;9.292;2022-07-21T04:58:17;99141.34;;;19.49;100.00
50933;BME280;36921;49.006;9.292;2022-07-21T05:00:43;99158.94;;;19.54;100.00
50933;BME280;36921;49.006;9.292;2022-07-21T05:03:08;99151.78;;;19.53;100.00
50933;BME280;36921;49.006;9.292;2022-07-21T05:05:33;99141.25;;;19.44;100.00
50933;BME280;36921;49.006;9.292;2022-07-21T05:07:58;99141.50;;;19.43;100.00
50933;BME280;36921;49.006;9.292;2022-07-21T05:10:24;99139.66;;;19.48;100.00
50933;BME280;36921;49.006;9.292;2022-07-21T05:12:49;99152.44;;;19.60;100.00
50933;BME280;36921;49.006;9.292;2022-07-21T05:15:15;99133.97;;;19.72;100.00
50933;BME280;36921;49.006;9.292;2022-07-21T05:17:41;99147.50;;;20.01;100.00
50933;BME280;36921;49.006;9.292;2022-07-21T05:20:07;99152.13;;;20.22;100.00
50933;BME280;36921;49.006;9.292;2022-07-21T05:22:32;99156.66;;;20.33;100.00
50933;BME280;36921;49.006;9.292;2022-07-21T05:24:57;99154.50;;;20.63;100.00
50933;BME280;36921;49.006;9.292;2022-07-21T05:27:23;99157.78;;;20.92;100.00
50933;BME280;36921;49.006;9.292;2022-07-21T05:29:48;99158.16;;;21.06;100.00
50933;BME280;36921;49.006;9.292;2022-07-21T05:32:13;99147.81;;;20.81;100.00
50933;BME280;36921;49.006;9.292;2022-07-21T05:34:39;99151.22;;;20.66;100.00
50933;BME280;36921;49.006;9.292;2022-07-21T05:37:05;99150.81;;;20.52;100.00
50933;BME280;36921;49.006;9.292;2022-07-21T05:39:30;99157.03;;;20.42;100.00
50933;BME280;36921;49.006;9.292;2022-07-21T05:41:56;99159.19;;;20.62;100.00
50933;BME280;36921;49.006;9.292;2022-07-21T05:44:21;99158.56;;;20.87;100.00
50933;BME280;36921;49.006;9.292;2022-07-21T05:46:47;99165.31;;;21.39;100.00
50933;BME280;36921;49.006;9.292;2022-07-21T05:49:12;99166.09;;;21.82;100.00
50933;BME280;36921;49.006;9.292;2022-07-21T05:51:37;99159.97;;;22.22;100.00
50933;BME280;36921;49.006;9.292;2022-07-21T05:54:03;99164.13;;;22.30;100.00
50933;BME280;36921;49.006;9.292;2022-07-21T05:56:28;99168.50;;;22.26;100.00
50933;BME280;36921;49.006;9.292;2022-07-21T05:58:53;99172.66;;;22.34;100.00
50933;BME280;36921;49.006;9.292;2022-07-21T06:01:18;99177.34;;;22.33;100.00
50933;BME280;36921;49.006;9.292;2022-07-21T06:03:46;99177.22;;;22.02;100.00
50933;BME280;36921;49.006;9.292;2022-07-21T06:06:13;99186.66;;;22.17;100.00
50933;BME280;36921;49.006;9.292;2022-07-21T06:08:40;99190.47;;;22.10;100.00
50933;BME280;36921;49.006;9.292;2022-07-21T06:11:07;99191.44;;;21.84;100.00
50933;BME280;36921;49.006;9.292;2022-07-21T06:13:33;99195.19;;;21.62;100.00
50933;BME280;36921;49.006;9.292;2022-07-21T06:15:59;99197.38;;;21.60;100.00
50933;BME280;36921;49.006;9.292;2022-07-21T06:18:24;99200.59;;;21.47;100.00
50933;BME280;36921;49.006;9.292;2022-07-21T06:20:50;99189.13;;;21.60;100.00
50933;BME280;36921;49.006;9.292;2022-07-21T06:23:15;99201.44;;;22.00;100.00
50933;BME280;36921;49.006;9.292;2022-07-21T06:25:41;99198.41;;;22.70;100.00
50933;BME280;36921;49.006;9.292;2022-07-21T06:28:06;99201.75;;;22.92;100.00
50933;BME280;36921;49.006;9.292;2022-07-21T06:30:31;99197.91;;;23.29;100.00
50933;BME280;36921;49.006;9.292;2022-07-21T06:32:57;99203.03;;;23.97;100.00
50933;BME280;36921;49.006;9.292;2022-07-21T06:35:22;99205.41;;;24.24;100.00
50933;BME280;36921;49.006;9.292;2022-07-21T06:37:48;99200.56;;;23.91;100.00
50933;BME280;36921;49.006;9.292;2022-07-21T06:40:13;99201.97;;;23.78;100.00
50933;BME280;36921;49.006;9.292;2022-07-21T06:42:39;99203.38;;;23.60;100.00
50933;BME280;36921;49.006;9.292;2022-07-21T06:45:04;99200.13;;;23.27;100.00
50933;BME280;36921;49.006;9.292;2022-07-21T06:47:30;99204.25;;;23.50;100.00
50933;BME280;36921;49.006;9.292;2022-07-21T06:49:55;99204.72;;;23.83;100.00
50933;BME280;36921;49.006;9.292;2022-07-21T06:52:21;99202.13;;;24.17;100.00
50933;BME280;36921;49.006;9.292;2022-07-21T06:54:46;99200.34;;;23.72;100.00
50933;BME280;36921;49.006;9.292;2022-07-21T06:57:11;99201.66;;;23.95;100.00
50933;BME280;36921;49.006;9.292;2022-07-21T06:59:38;99196.66;;;23.97;100.00
50933;BME280;36921;49.006;9.292;2022-07-21T07:02:03;99199.78;;;24.95;98.03
50933;BME280;36921;49.006;9.292;2022-07-21T07:04:29;99199.88;;;27.99;67.71
50933;BME280;36921;49.006;9.292;2022-07-21T07:06:54;99203.66;;;30.02;57.39
50933;BME280;36921;49.006;9.292;2022-07-21T07:09:20;99196.25;;;30.46;53.59
50933;BME280;36921;49.006;9.292;2022-07-21T07:11:45;99208.50;;;31.93;51.90
50933;BME280;36921;49.006;9.292;2022-07-21T07:14:13;99204.19;;;30.79;52.58
50933;BME280;36921;49.006;9.292;2022-07-21T07:16:39;99210.28;;;31.16;51.87
50933;BME280;36921;49.006;9.292;2022-07-21T07:19:04;99210.41;;;31.63;51.16
50933;BME280;36921;49.006;9.292;2022-07-21T07:21:29;99203.22;;;32.60;47.93
50933;BME280;36921;49.006;9.292;2022-07-21T07:23:55;99198.69;;;33.30;44.65
50933;BME280;36921;49.006;9.292;2022-07-21T07:26:20;99205.09;;;31.70;47.46
50933;BME280;36921;49.006;9.292;2022-07-21T07:28:45;99199.28;;;33.69;43.77
50933;BME280;36921;49.006;9.292;2022-07-21T07:31:10;99191.47;;;33.08;43.19
50933;BME280;36921;49.006;9.292;2022-07-21T07:33:36;99203.75;;;32.95;43.24
50933;BME280;36921;49.006;9.292;2022-07-21T07:36:01;99196.53;;;32.94;43.53
50933;BME280;36921;49.006;9.292;2022-07-21T07:38:26;99201.63;;;35.18;38.39
50933;BME280;36921;49.006;9.292;2022-07-21T07:40:52;99200.63;;;34.21;39.53
50933;BME280;36921;49.006;9.292;2022-07-21T07:43:17;99194.53;;;34.19;39.92
50933;BME280;36921;49.006;9.292;2022-07-21T07:45:42;99195.56;;;32.69;42.61
50933;BME280;36921;49.006;9.292;2022-07-21T07:48:08;99202.59;;;34.45;41.55
50933;BME280;36921;49.006;9.292;2022-07-21T07:50:33;99187.41;;;34.99;38.11
50933;BME280;36921;49.006;9.292;2022-07-21T07:52:59;99203.00;;;36.48;35.79
50933;BME280;36921;49.006;9.292;2022-07-21T07:55:24;99197.81;;;34.45;37.84
50933;BME280;36921;49.006;9.292;2022-07-21T07:57:49;99208.78;;;31.36;41.78
50933;BME280;36921;49.006;9.292;2022-07-21T08:00:17;99194.56;;;28.89;46.99
50933;BME280;36921;49.006;9.292;2022-07-21T08:02:42;99219.09;;;26.83;53.74
50933;BME280;36921;49.006;9.292;2022-07-21T08:05:08;99204.66;;;26.81;55.23
50933;BME280;36921;49.006;9.292;2022-07-21T08:07:35;99210.56;;;30.62;46.03
50933;BME280;36921;49.006;9.292;2022-07-21T08:10:00;99206.84;;;32.30;40.48
50933;BME280;36921;49.006;9.292;2022-07-21T08:12:26;99219.81;;;31.32;42.41
50933;BME280;36921;49.006;9.292;2022-07-21T08:14:51;99216.88;;;31.93;42.18
50933;BME280;36921;49.006;9.292;2022-07-21T08:17:16;99213.03;;;35.82;37.18
50933;BME280;36921;49.006;9.292;2022-07-21T08:19:43;99200.22;;;35.84;35.41
50933;BME280;36921;49.006;9.292;2022-07-21T08:22:08;99208.34;;;33.21;39.31
50933;BME280;36921;49.006;9.292;2022-07-21T08:24:34;99210.34;;;34.23;38.70
50933;BME280;36921;49.006;9.292;2022-07-21T08:26:59;99205.81;;;33.61;37.25
50933;BME280;36921;49.006;9.292;2022-07-21T08:29:24;99201.78;;;33.50;39.52
50933;BME280;36921;49.006;9.292;2022-07-21T08:31:49;99208.31;;;31.90;41.40
50933;BME280;36921;49.006;9.292;2022-07-21T08:34:15;99214.97;;;32.53;40.63
50933;BME280;36921;49.006;9.292;2022-07-21T08:36:40;99208.78;;;30.75;43.61
50933;BME280;36921;49.006;9.292;2022-07-21T08:39:05;99194.72;;;29.83;47.18
50933;BME280;36921;49.006;9.292;2022-07-21T08:41:35;99209.75;;;31.57;43.57
50933;BME280;36921;49.006;9.292;2022-07-21T08:44:01;99211.34;;;31.76;43.52
50933;BME280;36921;49.006;9.292;2022-07-21T08:46:28;99212.78;;;31.82;42.29
50933;BME280;36921;49.006;9.292;2022-07-21T08:48:53;99209.81;;;30.88;44.00
50933;BME280;36921;49.006;9.292;2022-07-21T08:51:19;99192.84;;;31.19;43.71
50933;BME280;36921;49.006;9.292;2022-07-21T08:53:47;99189.44;;;31.78;43.72
50933;BME280;36921;49.006;9.292;2022-07-21T08:56:13;99172.59;;;33.17;40.21
50933;BME280;36921;49.006;9.292;2022-07-21T08:58:39;99189.13;;;35.31;36.91
50933;BME280;36921;49.006;9.292;2022-07-21T09:01:04;99194.84;;;35.63;34.96
50933;BME280;36921;49.006;9.292;2022-07-21T09:03:30;99195.81;;;36.85;34.78
50933;BME280;36921;49.006;9.292;2022-07-21T09:08:34;99189.28;;;37.59;33.19
50933;BME280;36921;49.006;9.292;2022-07-21T09:14:05;99194.16;;;38.31;31.02
50933;BME280;36921;49.006;9.292;2022-07-21T09:16:42;99190.53;;;39.55;29.78
50933;BME280;36921;49.006;9.292;2022-07-21T09:19:16;99182.56;;;37.67;31.26
50933;BME280;36921;49.006;9.292;2022-07-21T09:21:42;99182.44;;;35.80;33.76
50933;BME280;36921;49.006;9.292;2022-07-21T09:24:20;99185.38;;;37.67;31.95
50933;BME280;36921;49.006;9.292;2022-07-21T09:27:12;99187.56;;;35.18;34.26
50933;BME280;36921;49.006;9.292;2022-07-21T09:29:45;99187.16;;;33.11;37.80
50933;BME280;36921;49.006;9.292;2022-07-21T09:34:37;99184.94;;;31.47;41.35
50933;BME280;36921;49.006;9.292;2022-07-21T09:37:05;99188.13;;;30.85;41.59
50933;BME280;36921;49.006;9.292;2022-07-21T09:42:17;99196.41;;;30.32;43.60
50933;BME280;36921;49.006;9.292;2022-07-21T09:44:45;99195.63;;;29.16;44.22
50933;BME280;36921;49.006;9.292;2022-07-21T09:47:13;99203.16;;;30.57;42.51
50933;BME280;36921;49.006;9.292;2022-07-21T09:49:39;99179.06;;;30.88;41.61
50933;BME280;36921;49.006;9.292;2022-07-21T09:52:25;99200.25;;;29.43;44.68
50933;BME280;36921;49.006;9.292;2022-07-21T09:54:52;99170.81;;;30.65;42.71
50933;BME280;36921;49.006;9.292;2022-07-21T09:57:19;99192.66;;;30.46;41.92
50933;BME280;36921;49.006;9.292;2022-07-21T09:59:46;99194.63;;;30.45;43.33
50933;BME280;36921;49.006;9.292;2022-07-21T10:02:18;99173.56;;;33.92;36.74
50933;BME280;36921;49.006;9.292;2022-07-21T10:04:46;99182.16;;;36.17;34.75
50933;BME280;36921;49.006;9.292;2022-07-21T10:07:13;99178.78;;;37.83;31.95
50933;BME280;36921;49.006;9.292;2022-07-21T10:09:39;99171.88;;;38.83;30.98
50933;BME280;36921;49.006;9.292;2022-07-21T10:12:05;99168.28;;;38.86;29.69
50933;BME280;36921;49.006;9.292;2022-07-21T10:14:30;99169.84;;;37.35;30.54
50933;BME280;36921;49.006;9.292;2022-07-21T10:16:56;99169.97;;;36.64;31.46
50933;BME280;36921;49.006;9.292;2022-07-21T10:19:27;99163.53;;;35.21;32.92
50933;BME280;36921;49.006;9.292;2022-07-21T10:24:42;99157.66;;;33.83;35.34
50933;BME280;36921;49.006;9.292;2022-07-21T10:27:10;99161.75;;;32.23;37.34
50933;BME280;36921;49.006;9.292;2022-07-21T10:32:18;99151.25;;;33.37;35.91
50933;BME280;36921;49.006;9.292;2022-07-21T10:34:44;99154.50;;;33.97;35.49
50933;BME280;36921;49.006;9.292;2022-07-21T10:37:10;99151.22;;;33.71;35.18
50933;BME280;36921;49.006;9.292;2022-07-21T10:39:37;99146.34;;;32.80;36.65
50933;BME280;36921;49.006;9.292;2022-07-21T10:42:14;99143.16;;;33.94;35.47
50933;BME280;36921;49.006;9.292;2022-07-21T10:44:46;99143.28;;;35.75;32.89
50933;BME280;36921;49.006;9.292;2022-07-21T10:47:18;99142.16;;;33.41;35.44
50933;BME280;36921;49.006;9.292;2022-07-21T10:49:55;99133.88;;;33.11;36.49
50933;BME280;36921;49.006;9.292;2022-07-21T10:57:35;99127.47;;;33.93;35.43
50933;BME280;36921;49.006;9.292;2022-07-21T11:00:27;99131.88;;;34.96;33.07
50933;BME280;36921;49.006;9.292;2022-07-21T11:02:54;99124.53;;;34.38;34.86
50933;BME280;36921;49.006;9.292;2022-07-21T11:05:21;99142.94;;;33.87;34.81
50933;BME280;36921;49.006;9.292;2022-07-21T11:10:36;99136.28;;;32.37;35.25
50933;BME280;36921;49.006;9.292;2022-07-21T11:13:02;99132.44;;;31.53;36.12
50933;BME280;36921;49.006;9.292;2022-07-21T11:18:21;99133.13;;;33.80;34.63
50933;BME280;36921;49.006;9.292;2022-07-21T11:21:06;99133.84;;;35.83;30.48
50933;BME280;36921;49.006;9.292;2022-07-21T11:23:37;99132.66;;;34.15;32.38
50933;BME280;36921;49.006;9.292;2022-07-21T11:26:02;99114.16;;;36.34;30.14
50933;BME280;36921;49.006;9.292;2022-07-21T11:28:28;99127.09;;;36.19;31.04
50933;BME280;36921;49.006;9.292;2022-07-21T11:33:38;99121.53;;;35.44;31.06
50933;BME280;36921;49.006;9.292;2022-07-21T11:36:04;99126.22;;;36.90;30.36
50933;BME280;36921;49.006;9.292;2022-07-21T11:38:30;99118.72;;;38.09;29.88
50933;BME280;36921;49.006;9.292;2022-07-21T11:41:17;99113.00;;;37.36;27.99
50933;BME280;36921;49.006;9.292;2022-07-21T11:43:44;99113.59;;;35.77;29.59
50933;BME280;36921;49.006;9.292;2022-07-21T11:46:10;99119.69;;;33.28;32.67
50933;BME280;36921;49.006;9.292;2022-07-21T11:48:35;99114.47;;;32.22;34.82
50933;BME280;36921;49.006;9.292;2022-07-21T11:51:03;99108.44;;;33.98;33.84
50933;BME280;36921;49.006;9.292;2022-07-21T11:53:29;99115.56;;;35.45;31.49
50933;BME280;36921;49.006;9.292;2022-07-21T11:55:54;99107.63;;;34.63;30.61
50933;BME280;36921;49.006;9.292;2022-07-21T11:58:20;99099.06;;;35.60;30.38
50933;BME280;36921;49.006;9.292;2022-07-21T12:00:45;99098.00;;;36.70;28.69
50933;BME280;36921;49.006;9.292;2022-07-21T12:03:14;99094.47;;;38.65;27.58
50933;BME280;36921;49.006;9.292;2022-07-21T12:05:40;99097.38;;;39.06;26.55
50933;BME280;36921;49.006;9.292;2022-07-21T12:08:07;99097.34;;;38.11;27.47
50933;BME280;36921;49.006;9.292;2022-07-21T12:10:33;99096.16;;;36.23;28.75
50933;BME280;36921;49.006;9.292;2022-07-21T12:13:04;99093.16;;;31.79;35.08
50933;BME280;36921;49.006;9.292;2022-07-21T12:15:31;99091.41;;;32.25;35.08
50933;BME280;36921;49.006;9.292;2022-07-21T12:18:01;99099.94;;;31.39;34.45
50933;BME280;36921;49.006;9.292;2022-07-21T12:20:31;99095.81;;;33.22;32.23
50933;BME280;36921;49.006;9.292;2022-07-21T12:22:58;99095.19;;;32.71;33.65
50933;BME280;36921;49.006;9.292;2022-07-21T12:25:35;99101.13;;;34.34;33.10
50933;BME280;36921;49.006;9.292;2022-07-21T12:28:03;99096.38;;;33.61;34.41
50933;BME280;36921;49.006;9.292;2022-07-21T12:33:05;99091.78;;;36.61;29.99
50933;BME280;36921;49.006;9.292;2022-07-21T12:35:31;99094.09;;;36.55;29.96
50933;BME280;36921;49.006;9.292;2022-07-21T12:40:29;99096.06;;;38.05;27.57
50933;BME280;36921;49.006;9.292;2022-07-21T12:43:12;99098.97;;;37.40;27.96
50933;BME280;36921;49.006;9.292;2022-07-21T12:46:01;99090.38;;;38.32;27.40
50933;BME280;36921;49.006;9.292;2022-07-21T12:48:30;99094.84;;;37.57;27.63
50933;BME280;36921;49.006;9.292;2022-07-21T12:53:30;99091.31;;;35.88;29.54
50933;BME280;36921;49.006;9.292;2022-07-21T12:55:56;99095.03;;;35.29;30.43
50933;BME280;36921;49.006;9.292;2022-07-21T12:58:22;99092.69;;;35.47;29.63
50933;BME280;36921;49.006;9.292;2022-07-21T13:00:47;99096.25;;;35.60;29.31
50933;BME280;36921;49.006;9.292;2022-07-21T13:03:13;99091.38;;;36.08;28.30
50933;BME280;36921;49.006;9.292;2022-07-21T13:05:39;99090.09;;;37.41;27.72
50933;BME280;36921;49.006;9.292;2022-07-21T13:08:05;99086.50;;;38.74;26.42
50933;BME280;36921;49.006;9.292;2022-07-21T13:10:30;99085.78;;;38.80;26.43
50933;BME280;36921;49.006;9.292;2022-07-21T13:12:55;99076.88;;;39.57;24.66
50933;BME280;36921;49.006;9.292;2022-07-21T13:15:21;99079.75;;;38.22;25.77
50933;BME280;36921;49.006;9.292;2022-07-21T13:17:46;99078.25;;;38.62;25.28
50933;BME280;36921;49.006;9.292;2022-07-21T13:20:13;99080.84;;;38.13;26.63
50933;BME280;36921;49.006;9.292;2022-07-21T13:22:39;99084.56;;;37.94;26.44
50933;BME280;36921;49.006;9.292;2022-07-21T13:25:05;99080.75;;;37.83;26.53
50933;BME280;36921;49.006;9.292;2022-07-21T13:27:30;99079.56;;;38.68;27.40
50933;BME280;36921;49.006;9.292;2022-07-21T13:29:55;99068.63;;;37.56;27.72